Weather observations for the past three days for
Lawrence, Lawrence Municipal Airport
Imperial (Metric)
Date Time (cdt) Wind (mph) Vis. (mi.) Weather Sky Cond. Temperature (ºF) Relative Humidity Wind Chill (°F) Heat Index (°F) Pressure Precipitation (in)
Air Dwpt 6 hour altimeter (in) sea level (mb) 1 hr 3 hr 6 hr
Max. Min.
01 14:52 S 13 G 22 10.00 Fair CLR 100 62.1 29% 102 29.95 1013.1
01 13:52 SW 14 G 21 10.00 Fair CLR 100 63 30% 102 29.96 1013.5
01 12:52 SW 16 G 26 10.00 Fair CLR 98.1 63 98.1 66 32% 100 29.99 1014.4
01 11:52 S 13 G 21 10.00 Fair CLR 96.1 64.9 36% 99 30 1014.9
01 10:52 S 7 10.00 Fair CLR 90 64.9 44% 92 30.01 1015.3
01 09:52 S 6 10.00 Fair CLR 86 64.9 49% 88 30.02 1015.5
01 08:52 SE 3 9.00 Fair CLR 78.1 66 67% 80 30.02 1015.8
01 07:52 SE 6 8.00 Fair CLR 71.1 66 84% 30.01 1015.5
01 06:52 E 3 9.00 Fair CLR 66 63 72 64.9 90% 30 1014.9
01 04:52 E 8 10.00 Fair CLR 69.1 63 81% 29.98 1014.1
01 03:52 E 3 10.00 Fair CLR 68 64 87% 29.96 1013.6
01 02:52 E 5 10.00 Fair CLR 69.1 64 84% 29.96 1013.4
01 01:52 Calm 10.00 Fair CLR 69.1 64 84% 29.97 1013.7
01 00:52 E 5 10.00 Fair CLR 71.1 64 95 70 79% 29.97 1013.8
31 23:52 E 6 10.00 Fair CLR 73.9 64 71% 29.96 1013.5
31 22:52 SE 5 10.00 Fair CLR 75.9 64.9 69% 78 29.95 1013.4
31 21:52 SE 6 10.00 Fair CLR 78.1 68 71% 80 29.94 1013.0
31 20:52 SE 3 10.00 Fair CLR 77 71.1 82% 79 29.93 1012.6
31 19:52 E 3 10.00 Fair CLR 82 71.1 69% 86 29.91 1012.0
31 18:52 S 7 10.00 Fair CLR 96.1 64.9 102 96.1 36% 99 29.91 1011.8
31 17:52 S 13 10.00 Fair CLR 98.1 64 33% 101 29.91 1011.6
31 16:52 S 8 10.00 Fair CLR 100.9 64.9 31% 105 29.91 1011.7
31 15:52 SW 9 10.00 Fair CLR 100.9 64 30% 104 29.92 1012.1
31 14:52 SW 15 10.00 Fair CLR 100.9 64 30% 104 29.93 1012.4
31 13:52 SW 10 10.00 Fair CLR 99 64.9 33% 102 29.93 1012.5
31 12:52 SW 12 10.00 Fair CLR 97 66 97 71.1 36% 101 29.95 1013.0
31 11:52 W 12 10.00 Fair CLR 93.9 64.9 38% 96 29.97 1013.6
31 10:52 SW 12 10.00 Fair CLR 90 64 42% 91 29.97 1014.0
31 09:52 SW 14 10.00 Fair CLR 87.1 64.9 48% 89 29.97 1013.7
31 08:52 S 10 10.00 A Few Clouds FEW120 80.1 64 58% 82 29.98 1014.1
31 07:52 S 7 10.00 Overcast OVC110 78.1 64 62% 80 29.97 1013.9
31 06:52 Calm 9.00 Fair CLR 73 63 80.1 73 71% 29.95 1013.1
31 05:52 S 7 10.00 Fair CLR 77 62.1 60% 79 29.94 1012.7
31 04:52 S 6 10.00 Fair CLR 79 61 54% 80 29.92 1011.9
31 03:52 S 8 10.00 Fair CLR 79 61 54% 80 29.91 1011.6
31 02:52 SE 6 10.00 Fair CLR 75.9 63 64% 78 29.91 1011.5
31 00:52 SE 8 10.00 Fair CLR 79 63 96.1 79 58% 81 29.88 1010.9
30 23:52 SE 9 10.00 Fair CLR 81 63 54% 82 29.87 1010.6
30 22:52 SE 7 10.00 Fair CLR 80.1 64 58% 82 29.87 1010.3
30 21:52 S 10 10.00 Fair CLR 86 62.1 45% 87 29.86 1010.1
30 20:52 SE 7 10.00 Fair CLR 81 66 61% 83 29.84 1009.6
30 19:52 SE 7 9.00 Fair CLR 84.9 68 57% 88 29.83 1009.2
30 18:52 S 9 10.00 Fair CLR 97 64 100.9 95 34% 99 29.82 1008.9
30 16:52 S 16 G 23 10.00 Fair CLR 100 66 33% 104 29.82 1008.6
30 15:52 S 15 G 23 10.00 Fair CLR 100 68 35% 106 29.83 1009.1
30 14:52 S 12 G 22 10.00 Fair CLR 100 68 35% 106 29.86 1010.0
30 13:52 S 15 G 23 10.00 Fair CLR 97 66.9 37% 101 29.87 1010.4
30 12:52 S 15 G 24 10.00 Fair CLR 95 66.9 95 75 40% 99 29.89 1011.2
30 11:52 S 9 G 22 10.00 Fair CLR 91 66.9 45% 94 29.91 1011.8
30 10:52 S 12 10.00 Fair CLR 88 66 48% 90 29.91 1012.0
30 09:52 S 9 10.00 Fair CLR 84.9 64 50% 86 29.9 1011.6
30 08:52 S 12 10.00 Fair CLR 81 63 54% 82 29.92 1012.2
30 07:52 S 7 10.00 Fair CLR 78.1 62.1 58% 80 29.92 1012.4
30 06:52 S 7 10.00 Fair CLR 75.9 61 78.1 71.1 60% 78 29.92 1012.3
30 05:52 SE 6 10.00 Fair CLR 75.9 61 60% 78 29.92 1012.2
30 04:52 SE 5 10.00 Fair CLR 73 62.1 69% 29.91 1011.9
30 03:52 E 6 10.00 Fair CLR 72 62.1 71% 29.91 1011.8
30 02:52 SE 7 10.00 Fair CLR 72 63 73% 29.91 1011.7
30 01:52 SE 9 10.00 Fair CLR 75.9 63 64% 78 29.91 1011.7
30 00:52 SE 5 10.00 Fair CLR 75.9 64 93 75 67% 78 29.91 1011.8
29 23:52 SE 8 10.00 Fair CLR 75 64.9 71% 77 29.91 1011.7
29 22:52 E 8 10.00 Fair CLR 77 64.9 66% 79 29.91 1011.8
29 21:52 SE 7 10.00 Fair CLR 77 66 69% 79 29.9 1011.8
29 20:52 SE 6 10.00 Fair CLR 77 66.9 71% 79 29.88 1011.1
29 19:52 SE 7 10.00 Fair CLR 84 66 55% 86 29.87 1010.7
29 18:52 S 10 10.00 Fair CLR 93 64 98.1 93 38% 95 29.87 1010.7
29 17:52 S 10 G 24 10.00 Fair CLR 96.1 64.9 36% 99 29.87 1010.5
29 16:52 S 18 G 29 10.00 Fair CLR 97 66 36% 101 29.88 1010.9
29 15:52 S 15 G 25 10.00 Fair CLR 97 64.9 35% 100 29.9 1011.5
Date Time (cdt) Wind (mph) Vis. (mi.) Weather Sky Cond. Air Dwpt Max. Min. Relative Humidity Wind Chill (°F) Heat Index (°F) altimeter (in) sea level (mb) 1 hr 3 hr 6 hr
6 hour
Temperature (ºF) Pressure Precipitation (in)